• Join FlightAware (Why Join?)
  • Login
  • US Flag 
03:13AM EDT


 

Airport Tracker/Info


-or-


 

Live Flight TrackerFlight Track Log ✈ EJA829P ✈ 07-Jul-2013 ✈ KFDY - KHPN

Flight Track Log - Related Links

Times and Time Zones

All times are in EDT time to prevent confusion due to time zone crossing. See the EJA829P flight status page for this flight to view local times or setup timezone preferences in your user account.

Time Position Orientation Groundspeed Altitude Reporting Facility
EDT Latitude Longitude Course Direction KTS MPH feet Rate Location/Type
08:38PM 41.0125 -83.5553 77° East 226 260 6,100  Level Cleveland Center
08:39PM 41.0378 -83.4544 72° East 275 316 9,400 1,920 Climbing Cleveland Center
08:40PM 41.0656 -83.3456 71° East 296 341 10,000 2,100 Climbing Cleveland Center
08:41PM 41.0933 -83.2308 72° East 321 369 13,600 3,360 Climbing Cleveland Center
08:42PM 41.1164 -83.1272 74° East 313 360 16,800 2,760 Climbing Cleveland Center
08:43PM 41.1923 -82.8630 77° East  Level FlightAware Approximate
08:43PM 41.1067 -83.0056 96° East 308 354 19,200  Level Cleveland Center
08:44PM 41.1258 -82.8850 78° East 320 368 21,800 2,400 Climbing Cleveland Center
08:45PM 41.1553 -82.7700 71° East 325 374 24,000 2,100 Climbing Cleveland Center
08:46PM 41.1867 -82.6442 72° East 340 391 26,000 1,980 Climbing Cleveland Center
08:47PM 41.2161 -82.5153 73° East 353 406 28,000 1,800 Climbing Cleveland Center
08:48PM 41.2472 -82.3892 72° East 358 412 29,700 1,320 Climbing Cleveland Center
08:49PM 41.2786 -82.2547 73° East 370 426 30,700 960 Climbing Cleveland Center
08:50PM 41.3161 -82.1119 71° East 392 451 31,700 960 Climbing Cleveland Center
08:51PM 41.3469 -81.9661 74° East 402 463 32,700 600 Climbing Cleveland Center
08:52PM 41.3842 -81.8147 72° East 408 470 33,000 120 Climbing Cleveland Center
08:53PM 41.4169 -81.6631 74° East 414 476 33,000  Level Cleveland Center
08:54PM 41.4517 -81.5056 74° East 438 504 33,000  Level Cleveland Center
08:55PM 41.4842 -81.3508 74° East 438 504 33,000  Level Cleveland Center
08:56PM 41.5206 -81.1906 73° East 438 504 33,000  Level Cleveland Center
08:57PM 41.5567 -81.0328 73° East 433 498 33,000  Level Cleveland Center
08:58PM 41.5906 -80.8775 74° East 434 499 33,000  Level Cleveland Center
08:59PM 41.6200 -80.7331 75° East 439 505 33,000  Level Cleveland Center
09:00PM 41.6556 -80.5747 73° East 439 505 33,000  Level Cleveland Center
09:01PM 41.6908 -80.4164 73° East 439 505 33,000  Level Cleveland Center
09:02PM 41.7261 -80.2547 74° East 439 505 33,000  Level Cleveland Center
09:03PM 41.7589 -80.0933 75° East 439 505 33,000  Level Cleveland Center
09:04PM 41.7914 -79.9314 75° East 439 505 33,000  Level Cleveland Center
09:05PM 41.8258 -79.7694 74° East 439 505 33,000  Level Cleveland Center
09:06PM 41.8619 -79.6072 73° East 444 511 33,000  Level Cleveland Center
09:07PM 41.9106 -79.4475 68° East 450 518 33,000  Level Cleveland Center
09:08PM 41.9778 -79.2956 59° Northeast 455 524 33,000  Level Cleveland Center
09:09PM 42.0469 -79.1458 58° Northeast 462 532 33,000  Level Cleveland Center
09:10PM 42.1136 -78.9933 59° Northeast 467 537 33,000  Level Cleveland Center
09:11PM 42.1781 -78.8403 60° Northeast 473 544 33,000  Level Cleveland Center
09:12PM 42.2506 -78.6728 60° Northeast 473 544 33,000  Level Cleveland Center
09:13PM 42.3167 -78.5192 60° Northeast 473 544 33,000  Level Cleveland Center
09:14PM 42.3828 -78.3681 59° Northeast 473 544 33,000  Level Cleveland Center
09:15PM 42.4486 -78.2194 59° Northeast 468 539 33,000  Level Cleveland Center
09:16PM 42.4783 -78.0550 76° East 451 519 33,000  Level Cleveland Center
09:17PM 42.4789 -77.8889 90° East 432 497 33,000  Level Cleveland Center
09:18PM 42.4853 -77.7308 87° East 432 497 33,000  Level Cleveland Center
09:20PM 42.4861 -77.3936 90° East 425 489 33,000  Level Boston Center
09:21PM 42.4886 -77.2417 89° East 407 468 33,000  Level Boston Center
09:22PM 42.4908 -77.0839 89° East 412 474 33,000  Level Boston Center
09:23PM 42.4911 -76.9261 90° East 417 480 33,000  Level Boston Center
09:24PM 42.4928 -76.7714 89° East 417 480 33,000  Level Boston Center
09:25PM 42.4944 -76.6167 89° East 417 480 33,000  Level Boston Center
09:26PM 42.4919 -76.4586 91° East 417 480 33,000 -480 Level Boston Center
09:27PM 42.4567 -76.2733 104° East 422 486 32,000 -1,080 Descending Boston Center
09:28PM 42.4242 -76.1167 106° East 428 493 30,900 -1,080 Descending Boston Center
09:29PM 42.3917 -75.9572 105° East 438 504 29,900 -1,020 Descending Boston Center
09:30PM 42.3572 -75.7922 106° East 445 512 28,900 -1,020 Descending Boston Center
09:31PM 42.3222 -75.6275 106° East 450 518 27,900 -1,740 Descending Boston Center
09:32PM 42.2892 -75.4658 105° East 450 518 25,500 -2,460 Descending Boston Center
09:33PM 42.2578 -75.3100 105° East 440 506 23,000 -2,280 Descending Boston Center
09:34PM 42.2242 -75.1569 106° East 435 501 20,500 -1,980 Descending Boston Center
09:35PM 42.1744 -74.9586 109° East 406 467 18,000 -1,080 Descending Boston Center
09:36PM 42.1111 -74.7994 118° Southeast 401 461 18,000 -900 Level Boston Center
09:37PM 42.0575 -74.6742 120° Southeast 395 455 16,200 -2,460 Descending Boston Center
09:38PM 42.0078 -74.5497 118° Southeast 379 436 13,100 -2,700 Descending Boston Center
09:39PM 41.9678 -74.4561 120° Southeast 366 421 10,900 -1,560 Descending Boston Center
09:40PM 41.9097 -74.3203 120° Southeast 356 410 10,000 -840 Descending Boston Center
09:41PM 41.8567 -74.2436 133° Southeast 327 376 9,300 -960 Descending Boston Center
09:42PM 41.8053 -74.1975 146° Southeast 300 345 8,100 -1,200 Descending Boston Center
09:43PM 41.7250 -74.1286 147° Southeast 290 334 7,000 -720 Descending Boston Center
09:44PM 41.6572 -74.0711 148° Southeast 285 328 6,700 -540 Descending Boston Center
09:45PM 41.5850 -74.0081 147° Southeast 285 328 6,000 -300 Descending Boston Center
09:47PM 41.5000 -73.9333 147° Southeast 280 322 6,100  Climbing New York TRACON
09:48PM 41.4333 -73.8833 151° Southeast 281 323 6,100  Level New York TRACON
09:49PM 41.3667 -73.8167 143° Southeast 286 329 6,100  Level New York TRACON
09:50PM 41.3000 -73.7500 143° Southeast 287 330 6,100 -600 Level New York TRACON
09:51PM 41.2500 -73.7167 153° Southeast 287 330 5,100 -1,320 Descending New York TRACON
09:52PM 41.1667 -73.6500 149° Southeast 281 323 3,600 -1,020 Descending New York TRACON
09:53PM 41.1167 -73.5833 135° Southeast 256 295 3,000 -240 Descending New York TRACON
09:54PM 41.0667 -73.5500 153° Southeast 206 237 3,100 -420 Climbing New York TRACON
09:55PM 41.0000 -73.5333 169° South 205 236 2,200 -540 Descending New York TRACON
09:56PM 40.9667 -73.5667 217° Southwest 181 208 2,100 -60 Descending New York TRACON
09:57PM 40.9833 -73.6333 288° West 192 221 2,100 -360 Level New York TRACON
09:58PM 41.0167 -73.6667 323° Northwest 173 199 1,400 -660 Descending New York TRACON
09:59PM 41.0500 -73.7000 323° Northwest 114 131 800 -600 Descending New York TRACON
10:01PM 41.0667 -73.7000 315° West  Level FlightAware Approximate
10:08PM 41.0669 -73.7076 315° West  Level Estimated